sensor_id;sensor_type;location;lat;lon;timestamp;temperature;humidity
41720;DHT22;27405;53.316;-6.294;2022-07-18T00:02:21;24.00;42.20
41720;DHT22;27405;53.316;-6.294;2022-07-18T00:04:47;24.00;42.30
41720;DHT22;27405;53.316;-6.294;2022-07-18T00:07:13;23.90;42.30
41720;DHT22;27405;53.316;-6.294;2022-07-18T00:09:40;23.90;42.50
41720;DHT22;27405;53.316;-6.294;2022-07-18T00:12:07;23.90;42.50
41720;DHT22;27405;53.316;-6.294;2022-07-18T00:14:34;23.80;42.60
41720;DHT22;27405;53.316;-6.294;2022-07-18T00:17:00;23.80;42.90
41720;DHT22;27405;53.316;-6.294;2022-07-18T00:19:27;23.70;43.10
41720;DHT22;27405;53.316;-6.294;2022-07-18T00:21:53;23.60;43.30
41720;DHT22;27405;53.316;-6.294;2022-07-18T00:24:18;23.60;43.60
41720;DHT22;27405;53.316;-6.294;2022-07-18T00:26:44;23.50;43.80
41720;DHT22;27405;53.316;-6.294;2022-07-18T00:29:10;23.50;44.00
41720;DHT22;27405;53.316;-6.294;2022-07-18T00:31:37;23.40;44.20
41720;DHT22;27405;53.316;-6.294;2022-07-18T00:34:03;23.30;44.70
41720;DHT22;27405;53.316;-6.294;2022-07-18T00:36:29;23.30;45.40
41720;DHT22;27405;53.316;-6.294;2022-07-18T00:38:55;23.20;45.90
41720;DHT22;27405;53.316;-6.294;2022-07-18T00:41:21;23.10;46.30
41720;DHT22;27405;53.316;-6.294;2022-07-18T00:43:48;23.00;46.70
41720;DHT22;27405;53.316;-6.294;2022-07-18T00:46:13;22.90;47.30
41720;DHT22;27405;53.316;-6.294;2022-07-18T00:48:42;22.80;47.80
41720;DHT22;27405;53.316;-6.294;2022-07-18T00:51:08;22.70;48.50
41720;DHT22;27405;53.316;-6.294;2022-07-18T00:53:35;22.60;48.90
41720;DHT22;27405;53.316;-6.294;2022-07-18T00:56:02;22.50;49.30
41720;DHT22;27405;53.316;-6.294;2022-07-18T00:58:28;22.40;49.80
41720;DHT22;27405;53.316;-6.294;2022-07-18T01:00:55;22.40;50.90
41720;DHT22;27405;53.316;-6.294;2022-07-18T01:03:39;22.30;50.60
41720;DHT22;27405;53.316;-6.294;2022-07-18T01:06:05;22.20;50.80
41720;DHT22;27405;53.316;-6.294;2022-07-18T01:08:31;22.20;51.10
41720;DHT22;27405;53.316;-6.294;2022-07-18T01:10:58;22.10;51.30
41720;DHT22;27405;53.316;-6.294;2022-07-18T01:13:24;22.10;51.70
41720;DHT22;27405;53.316;-6.294;2022-07-18T01:15:49;22.00;52.50
41720;DHT22;27405;53.316;-6.294;2022-07-18T01:18:16;22.00;53.10
41720;DHT22;27405;53.316;-6.294;2022-07-18T01:20:42;21.90;53.90
41720;DHT22;27405;53.316;-6.294;2022-07-18T01:23:08;21.90;54.50
41720;DHT22;27405;53.316;-6.294;2022-07-18T01:25:34;21.80;55.10
41720;DHT22;27405;53.316;-6.294;2022-07-18T01:28:00;21.70;55.50
41720;DHT22;27405;53.316;-6.294;2022-07-18T01:30:26;21.70;56.00
41720;DHT22;27405;53.316;-6.294;2022-07-18T01:33:00;21.70;56.10
41720;DHT22;27405;53.316;-6.294;2022-07-18T01:35:27;21.60;56.60
41720;DHT22;27405;53.316;-6.294;2022-07-18T01:37:55;21.60;56.70
41720;DHT22;27405;53.316;-6.294;2022-07-18T01:40:22;21.50;56.80
41720;DHT22;27405;53.316;-6.294;2022-07-18T01:42:48;21.50;56.80
41720;DHT22;27405;53.316;-6.294;2022-07-18T01:45:14;21.50;56.90
41720;DHT22;27405;53.316;-6.294;2022-07-18T01:47:41;21.50;57.00
41720;DHT22;27405;53.316;-6.294;2022-07-18T01:50:08;21.40;57.20
41720;DHT22;27405;53.316;-6.294;2022-07-18T01:52:33;21.40;57.50
41720;DHT22;27405;53.316;-6.294;2022-07-18T01:54:59;21.30;57.50
41720;DHT22;27405;53.316;-6.294;2022-07-18T01:57:25;21.30;57.40
41720;DHT22;27405;53.316;-6.294;2022-07-18T01:59:50;21.30;57.60
41720;DHT22;27405;53.316;-6.294;2022-07-18T02:02:16;21.30;57.60
41720;DHT22;27405;53.316;-6.294;2022-07-18T02:04:42;21.20;57.90
41720;DHT22;27405;53.316;-6.294;2022-07-18T02:07:40;21.20;58.20
41720;DHT22;27405;53.316;-6.294;2022-07-18T02:10:16;21.20;58.60
41720;DHT22;27405;53.316;-6.294;2022-07-18T02:12:42;21.20;59.00
41720;DHT22;27405;53.316;-6.294;2022-07-18T02:15:10;21.10;58.90
41720;DHT22;27405;53.316;-6.294;2022-07-18T02:17:36;21.10;59.30
41720;DHT22;27405;53.316;-6.294;2022-07-18T02:20:06;21.00;59.60
41720;DHT22;27405;53.316;-6.294;2022-07-18T02:22:32;21.10;59.80
41720;DHT22;27405;53.316;-6.294;2022-07-18T02:24:58;21.00;59.90
41720;DHT22;27405;53.316;-6.294;2022-07-18T02:27:24;21.00;60.10
41720;DHT22;27405;53.316;-6.294;2022-07-18T02:29:50;20.90;60.20
41720;DHT22;27405;53.316;-6.294;2022-07-18T02:32:19;20.90;60.40
41720;DHT22;27405;53.316;-6.294;2022-07-18T02:34:44;20.90;60.60
41720;DHT22;27405;53.316;-6.294;2022-07-18T02:37:10;20.90;60.70
41720;DHT22;27405;53.316;-6.294;2022-07-18T02:39:37;20.80;60.90
41720;DHT22;27405;53.316;-6.294;2022-07-18T02:42:03;20.80;61.10
41720;DHT22;27405;53.316;-6.294;2022-07-18T02:44:29;20.80;61.30
41720;DHT22;27405;53.316;-6.294;2022-07-18T02:46:55;20.70;61.50
41720;DHT22;27405;53.316;-6.294;2022-07-18T02:49:20;20.70;61.70
41720;DHT22;27405;53.316;-6.294;2022-07-18T02:51:54;20.70;62.00
41720;DHT22;27405;53.316;-6.294;2022-07-18T02:54:21;20.60;62.10
41720;DHT22;27405;53.316;-6.294;2022-07-18T02:56:47;20.60;62.20
41720;DHT22;27405;53.316;-6.294;2022-07-18T02:59:12;20.60;62.30
41720;DHT22;27405;53.316;-6.294;2022-07-18T03:01:38;20.50;62.50
41720;DHT22;27405;53.316;-6.294;2022-07-18T03:04:04;20.50;62.80
41720;DHT22;27405;53.316;-6.294;2022-07-18T03:06:29;20.50;62.90
41720;DHT22;27405;53.316;-6.294;2022-07-18T03:08:55;20.40;63.00
41720;DHT22;27405;53.316;-6.294;2022-07-18T03:11:21;20.40;63.20
41720;DHT22;27405;53.316;-6.294;2022-07-18T03:13:46;20.40;63.20
41720;DHT22;27405;53.316;-6.294;2022-07-18T03:16:12;20.40;63.30
41720;DHT22;27405;53.316;-6.294;2022-07-18T03:18:38;20.40;63.40
41720;DHT22;27405;53.316;-6.294;2022-07-18T03:21:04;20.30;63.40
41720;DHT22;27405;53.316;-6.294;2022-07-18T03:23:30;20.30;63.60
41720;DHT22;27405;53.316;-6.294;2022-07-18T03:25:55;20.30;63.70
41720;DHT22;27405;53.316;-6.294;2022-07-18T03:28:21;20.20;63.70
41720;DHT22;27405;53.316;-6.294;2022-07-18T03:30:47;20.20;63.60
41720;DHT22;27405;53.316;-6.294;2022-07-18T03:33:16;20.20;63.70
41720;DHT22;27405;53.316;-6.294;2022-07-18T03:35:42;20.20;63.80
41720;DHT22;27405;53.316;-6.294;2022-07-18T03:38:08;20.20;63.90
41720;DHT22;27405;53.316;-6.294;2022-07-18T03:40:33;20.10;63.80
41720;DHT22;27405;53.316;-6.294;2022-07-18T03:43:00;20.10;63.90
41720;DHT22;27405;53.316;-6.294;2022-07-18T03:45:25;20.10;63.90
41720;DHT22;27405;53.316;-6.294;2022-07-18T03:47:51;20.00;63.90
41720;DHT22;27405;53.316;-6.294;2022-07-18T03:50:17;20.00;64.00
41720;DHT22;27405;53.316;-6.294;2022-07-18T03:52:43;20.00;64.10
41720;DHT22;27405;53.316;-6.294;2022-07-18T03:55:11;20.00;64.10
41720;DHT22;27405;53.316;-6.294;2022-07-18T03:57:39;19.90;64.20
41720;DHT22;27405;53.316;-6.294;2022-07-18T04:00:06;19.90;64.20
41720;DHT22;27405;53.316;-6.294;2022-07-18T04:02:42;19.90;64.40
41720;DHT22;27405;53.316;-6.294;2022-07-18T04:05:08;19.90;64.60
41720;DHT22;27405;53.316;-6.294;2022-07-18T04:07:34;19.90;64.60
41720;DHT22;27405;53.316;-6.294;2022-07-18T04:10:01;19.80;64.70
41720;DHT22;27405;53.316;-6.294;2022-07-18T04:12:26;19.80;64.90
41720;DHT22;27405;53.316;-6.294;2022-07-18T04:14:52;19.70;64.90
41720;DHT22;27405;53.316;-6.294;2022-07-18T04:17:18;19.70;65.10
41720;DHT22;27405;53.316;-6.294;2022-07-18T04:19:43;19.70;65.10
41720;DHT22;27405;53.316;-6.294;2022-07-18T04:22:09;19.70;65.30
41720;DHT22;27405;53.316;-6.294;2022-07-18T04:24:35;19.70;65.40
41720;DHT22;27405;53.316;-6.294;2022-07-18T04:27:00;19.70;65.60
41720;DHT22;27405;53.316;-6.294;2022-07-18T04:29:26;19.60;65.50
41720;DHT22;27405;53.316;-6.294;2022-07-18T04:31:52;19.60;65.80
41720;DHT22;27405;53.316;-6.294;2022-07-18T04:34:18;19.50;65.80
41720;DHT22;27405;53.316;-6.294;2022-07-18T04:36:43;19.50;65.90
41720;DHT22;27405;53.316;-6.294;2022-07-18T04:39:09;19.50;66.00
41720;DHT22;27405;53.316;-6.294;2022-07-18T04:41:34;19.50;66.10
41720;DHT22;27405;53.316;-6.294;2022-07-18T04:44:00;19.50;66.20
41720;DHT22;27405;53.316;-6.294;2022-07-18T04:46:26;19.40;66.30
41720;DHT22;27405;53.316;-6.294;2022-07-18T04:48:51;19.40;66.50
41720;DHT22;27405;53.316;-6.294;2022-07-18T04:51:17;19.40;66.50
41720;DHT22;27405;53.316;-6.294;2022-07-18T04:53:43;19.40;66.50
41720;DHT22;27405;53.316;-6.294;2022-07-18T04:56:09;19.30;66.60
41720;DHT22;27405;53.316;-6.294;2022-07-18T04:58:34;19.40;66.80
41720;DHT22;27405;53.316;-6.294;2022-07-18T05:01:00;19.30;66.90
41720;DHT22;27405;53.316;-6.294;2022-07-18T05:03:25;19.40;66.90
41720;DHT22;27405;53.316;-6.294;2022-07-18T05:05:51;19.40;66.80
41720;DHT22;27405;53.316;-6.294;2022-07-18T05:08:17;19.40;66.90
41720;DHT22;27405;53.316;-6.294;2022-07-18T05:10:43;19.40;67.00
41720;DHT22;27405;53.316;-6.294;2022-07-18T05:13:09;19.50;67.10
41720;DHT22;27405;53.316;-6.294;2022-07-18T05:15:35;19.50;67.10
41720;DHT22;27405;53.316;-6.294;2022-07-18T05:18:01;19.50;67.20
41720;DHT22;27405;53.316;-6.294;2022-07-18T05:20:26;19.60;67.50
41720;DHT22;27405;53.316;-6.294;2022-07-18T05:22:53;19.60;67.50
41720;DHT22;27405;53.316;-6.294;2022-07-18T05:25:19;19.60;67.60
41720;DHT22;27405;53.316;-6.294;2022-07-18T05:27:47;19.60;67.50
41720;DHT22;27405;53.316;-6.294;2022-07-18T05:30:13;19.60;68.10
41720;DHT22;27405;53.316;-6.294;2022-07-18T05:32:43;19.70;67.50
41720;DHT22;27405;53.316;-6.294;2022-07-18T05:35:10;19.70;67.60
41720;DHT22;27405;53.316;-6.294;2022-07-18T05:37:36;19.70;67.50
41720;DHT22;27405;53.316;-6.294;2022-07-18T05:40:07;19.80;67.60
41720;DHT22;27405;53.316;-6.294;2022-07-18T05:42:34;19.80;67.70
41720;DHT22;27405;53.316;-6.294;2022-07-18T05:45:00;19.80;67.60
41720;DHT22;27405;53.316;-6.294;2022-07-18T05:47:25;19.80;67.70
41720;DHT22;27405;53.316;-6.294;2022-07-18T05:49:51;19.90;67.70
41720;DHT22;27405;53.316;-6.294;2022-07-18T05:52:17;19.90;67.50
41720;DHT22;27405;53.316;-6.294;2022-07-18T05:54:43;20.00;67.50
41720;DHT22;27405;53.316;-6.294;2022-07-18T05:57:08;20.00;67.40
41720;DHT22;27405;53.316;-6.294;2022-07-18T05:59:34;20.10;67.30
41720;DHT22;27405;53.316;-6.294;2022-07-18T06:02:00;20.20;67.10
41720;DHT22;27405;53.316;-6.294;2022-07-18T06:04:25;20.30;67.00
41720;DHT22;27405;53.316;-6.294;2022-07-18T06:06:51;20.30;66.80
41720;DHT22;27405;53.316;-6.294;2022-07-18T06:09:17;20.40;66.60
41720;DHT22;27405;53.316;-6.294;2022-07-18T06:11:43;20.50;66.50
41720;DHT22;27405;53.316;-6.294;2022-07-18T06:14:09;20.60;66.20
41720;DHT22;27405;53.316;-6.294;2022-07-18T06:16:35;20.60;66.10
41720;DHT22;27405;53.316;-6.294;2022-07-18T06:19:02;20.70;65.90
41720;DHT22;27405;53.316;-6.294;2022-07-18T06:21:28;20.80;65.80
41720;DHT22;27405;53.316;-6.294;2022-07-18T06:23:54;20.90;65.70
41720;DHT22;27405;53.316;-6.294;2022-07-18T06:26:20;21.00;65.20
41720;DHT22;27405;53.316;-6.294;2022-07-18T06:28:45;21.00;65.60
41720;DHT22;27405;53.316;-6.294;2022-07-18T06:31:11;21.10;64.80
41720;DHT22;27405;53.316;-6.294;2022-07-18T06:33:37;21.20;64.70
41720;DHT22;27405;53.316;-6.294;2022-07-18T06:36:03;21.30;64.30
41720;DHT22;27405;53.316;-6.294;2022-07-18T06:38:31;21.40;64.20
41720;DHT22;27405;53.316;-6.294;2022-07-18T06:40:56;21.40;64.00
41720;DHT22;27405;53.316;-6.294;2022-07-18T06:43:22;21.50;63.80
41720;DHT22;27405;53.316;-6.294;2022-07-18T06:45:48;21.60;63.60
41720;DHT22;27405;53.316;-6.294;2022-07-18T06:48:15;21.60;63.50
41720;DHT22;27405;53.316;-6.294;2022-07-18T06:50:41;21.60;63.50
41720;DHT22;27405;53.316;-6.294;2022-07-18T06:53:07;21.70;63.50
41720;DHT22;27405;53.316;-6.294;2022-07-18T06:55:33;21.70;63.30
41720;DHT22;27405;53.316;-6.294;2022-07-18T06:57:58;21.80;63.30
41720;DHT22;27405;53.316;-6.294;2022-07-18T07:00:24;21.80;63.30
41720;DHT22;27405;53.316;-6.294;2022-07-18T07:02:51;21.80;63.20
41720;DHT22;27405;53.316;-6.294;2022-07-18T07:05:18;21.90;63.40
41720;DHT22;27405;53.316;-6.294;2022-07-18T07:07:45;21.90;63.30
41720;DHT22;27405;53.316;-6.294;2022-07-18T07:10:11;22.00;63.10
41720;DHT22;27405;53.316;-6.294;2022-07-18T07:12:40;22.00;62.90
41720;DHT22;27405;53.316;-6.294;2022-07-18T07:15:07;22.10;62.90
41720;DHT22;27405;53.316;-6.294;2022-07-18T07:17:34;22.10;62.60
41720;DHT22;27405;53.316;-6.294;2022-07-18T07:20:00;22.20;62.50
41720;DHT22;27405;53.316;-6.294;2022-07-18T07:22:25;22.20;62.40
41720;DHT22;27405;53.316;-6.294;2022-07-18T07:24:51;22.20;62.30
41720;DHT22;27405;53.316;-6.294;2022-07-18T07:27:17;22.30;62.20
41720;DHT22;27405;53.316;-6.294;2022-07-18T07:29:42;22.30;62.20
41720;DHT22;27405;53.316;-6.294;2022-07-18T07:32:08;22.30;62.10
41720;DHT22;27405;53.316;-6.294;2022-07-18T07:34:34;22.30;61.90
41720;DHT22;27405;53.316;-6.294;2022-07-18T07:36:59;22.40;61.80
41720;DHT22;27405;53.316;-6.294;2022-07-18T07:39:25;22.40;61.70
41720;DHT22;27405;53.316;-6.294;2022-07-18T07:41:51;22.50;61.70
41720;DHT22;27405;53.316;-6.294;2022-07-18T07:44:16;22.50;61.00
41720;DHT22;27405;53.316;-6.294;2022-07-18T07:46:42;22.50;60.40
41720;DHT22;27405;53.316;-6.294;2022-07-18T07:49:08;22.60;60.10
41720;DHT22;27405;53.316;-6.294;2022-07-18T07:51:33;22.60;60.00
41720;DHT22;27405;53.316;-6.294;2022-07-18T07:53:59;22.60;59.90
41720;DHT22;27405;53.316;-6.294;2022-07-18T07:56:25;22.60;59.60
41720;DHT22;27405;53.316;-6.294;2022-07-18T07:58:50;22.70;59.30
41720;DHT22;27405;53.316;-6.294;2022-07-18T08:01:16;22.70;59.20
41720;DHT22;27405;53.316;-6.294;2022-07-18T08:03:45;22.80;59.00
41720;DHT22;27405;53.316;-6.294;2022-07-18T08:06:11;22.80;59.00
41720;DHT22;27405;53.316;-6.294;2022-07-18T08:08:37;22.90;58.90
41720;DHT22;27405;53.316;-6.294;2022-07-18T08:11:03;22.90;58.60
41720;DHT22;27405;53.316;-6.294;2022-07-18T08:13:29;23.00;58.10
41720;DHT22;27405;53.316;-6.294;2022-07-18T08:15:54;23.00;57.80
41720;DHT22;27405;53.316;-6.294;2022-07-18T08:18:20;23.00;57.70
41720;DHT22;27405;53.316;-6.294;2022-07-18T08:20:46;23.10;57.80
41720;DHT22;27405;53.316;-6.294;2022-07-18T08:23:11;23.20;57.90
41720;DHT22;27405;53.316;-6.294;2022-07-18T08:25:41;23.20;57.60
41720;DHT22;27405;53.316;-6.294;2022-07-18T08:28:07;23.30;57.00
41720;DHT22;27405;53.316;-6.294;2022-07-18T08:30:34;23.40;56.80
41720;DHT22;27405;53.316;-6.294;2022-07-18T08:33:01;23.40;56.50
41720;DHT22;27405;53.316;-6.294;2022-07-18T08:35:28;23.50;56.30
41720;DHT22;27405;53.316;-6.294;2022-07-18T08:37:54;23.50;56.00
41720;DHT22;27405;53.316;-6.294;2022-07-18T08:40:20;23.60;55.90
41720;DHT22;27405;53.316;-6.294;2022-07-18T08:42:52;23.70;55.20
41720;DHT22;27405;53.316;-6.294;2022-07-18T08:45:20;23.70;54.80
41720;DHT22;27405;53.316;-6.294;2022-07-18T08:47:50;23.80;54.50
41720;DHT22;27405;53.316;-6.294;2022-07-18T08:50:16;23.80;54.20
41720;DHT22;27405;53.316;-6.294;2022-07-18T08:52:42;23.90;54.10
41720;DHT22;27405;53.316;-6.294;2022-07-18T08:55:09;23.90;53.90
41720;DHT22;27405;53.316;-6.294;2022-07-18T08:57:36;23.90;53.60
41720;DHT22;27405;53.316;-6.294;2022-07-18T09:00:04;24.10;53.60
41720;DHT22;27405;53.316;-6.294;2022-07-18T09:02:30;24.10;53.00
41720;DHT22;27405;53.316;-6.294;2022-07-18T09:04:56;24.10;52.80
41720;DHT22;27405;53.316;-6.294;2022-07-18T09:07:27;24.20;52.30
41720;DHT22;27405;53.316;-6.294;2022-07-18T09:10:01;24.30;52.00
41720;DHT22;27405;53.316;-6.294;2022-07-18T09:12:29;24.40;51.50
41720;DHT22;27405;53.316;-6.294;2022-07-18T09:14:57;24.40;51.10
41720;DHT22;27405;53.316;-6.294;2022-07-18T09:17:23;24.50;50.70
41720;DHT22;27405;53.316;-6.294;2022-07-18T09:20:05;24.60;50.70
41720;DHT22;27405;53.316;-6.294;2022-07-18T09:22:51;24.70;50.80
41720;DHT22;27405;53.316;-6.294;2022-07-18T09:25:21;24.80;50.90
41720;DHT22;27405;53.316;-6.294;2022-07-18T09:27:53;24.90;50.40
41720;DHT22;27405;53.316;-6.294;2022-07-18T09:32:54;25.10;50.40
41720;DHT22;27405;53.316;-6.294;2022-07-18T09:35:30;25.20;49.60
41720;DHT22;27405;53.316;-6.294;2022-07-18T09:38:07;25.20;49.20
41720;DHT22;27405;53.316;-6.294;2022-07-18T09:40:36;25.30;49.20
41720;DHT22;27405;53.316;-6.294;2022-07-18T09:43:05;25.40;48.30
41720;DHT22;27405;53.316;-6.294;2022-07-18T09:45:34;25.50;47.40
41720;DHT22;27405;53.316;-6.294;2022-07-18T09:48:07;25.60;46.90
41720;DHT22;27405;53.316;-6.294;2022-07-18T09:50:39;25.60;47.40
41720;DHT22;27405;53.316;-6.294;2022-07-18T09:53:13;25.60;46.60
41720;DHT22;27405;53.316;-6.294;2022-07-18T09:55:45;25.70;46.10
41720;DHT22;27405;53.316;-6.294;2022-07-18T09:58:12;25.80;46.10
41720;DHT22;27405;53.316;-6.294;2022-07-18T10:00:39;25.90;46.10
41720;DHT22;27405;53.316;-6.294;2022-07-18T10:03:07;25.90;46.20
41720;DHT22;27405;53.316;-6.294;2022-07-18T10:05:35;26.00;46.10
41720;DHT22;27405;53.316;-6.294;2022-07-18T10:08:03;26.00;46.00
41720;DHT22;27405;53.316;-6.294;2022-07-18T10:10:29;26.10;46.40
41720;DHT22;27405;53.316;-6.294;2022-07-18T10:12:57;26.10;47.40
41720;DHT22;27405;53.316;-6.294;2022-07-18T10:15:25;26.20;46.90
41720;DHT22;27405;53.316;-6.294;2022-07-18T10:17:51;26.30;46.90
41720;DHT22;27405;53.316;-6.294;2022-07-18T10:20:17;26.40;47.10
41720;DHT22;27405;53.316;-6.294;2022-07-18T10:22:52;26.50;47.50
41720;DHT22;27405;53.316;-6.294;2022-07-18T10:25:21;26.50;47.80
41720;DHT22;27405;53.316;-6.294;2022-07-18T10:30:15;26.70;47.90
41720;DHT22;27405;53.316;-6.294;2022-07-18T10:32:41;26.80;48.00
41720;DHT22;27405;53.316;-6.294;2022-07-18T10:35:09;27.00;48.30
41720;DHT22;27405;53.316;-6.294;2022-07-18T10:37:38;27.10;48.50
41720;DHT22;27405;53.316;-6.294;2022-07-18T10:40:27;27.20;48.40
41720;DHT22;27405;53.316;-6.294;2022-07-18T10:45:55;27.50;47.90
41720;DHT22;27405;53.316;-6.294;2022-07-18T10:51:13;27.70;47.90
41720;DHT22;27405;53.316;-6.294;2022-07-18T10:56:23;27.80;48.10
41720;DHT22;27405;53.316;-6.294;2022-07-18T10:59:20;27.80;48.20
41720;DHT22;27405;53.316;-6.294;2022-07-18T11:01:54;27.90;48.30
41720;DHT22;27405;53.316;-6.294;2022-07-18T11:07:02;28.10;49.70
41720;DHT22;27405;53.316;-6.294;2022-07-18T11:09:32;28.10;49.50
41720;DHT22;27405;53.316;-6.294;2022-07-18T11:15:04;28.10;49.00
41720;DHT22;27405;53.316;-6.294;2022-07-18T11:18:01;28.00;48.90
41720;DHT22;27405;53.316;-6.294;2022-07-18T11:20:35;28.00;48.80
41720;DHT22;27405;53.316;-6.294;2022-07-18T11:23:03;28.10;48.40
41720;DHT22;27405;53.316;-6.294;2022-07-18T11:25:30;28.10;48.30
41720;DHT22;27405;53.316;-6.294;2022-07-18T11:27:56;28.20;48.20
41720;DHT22;27405;53.316;-6.294;2022-07-18T11:30:23;28.20;47.80
41720;DHT22;27405;53.316;-6.294;2022-07-18T11:32:50;28.30;47.40
41720;DHT22;27405;53.316;-6.294;2022-07-18T11:35:25;28.30;46.60
41720;DHT22;27405;53.316;-6.294;2022-07-18T11:37:52;28.30;46.00
41720;DHT22;27405;53.316;-6.294;2022-07-18T11:40:20;28.30;46.20
41720;DHT22;27405;53.316;-6.294;2022-07-18T11:42:46;28.40;46.50
41720;DHT22;27405;53.316;-6.294;2022-07-18T11:45:13;28.50;46.70
41720;DHT22;27405;53.316;-6.294;2022-07-18T11:47:50;28.50;46.90
41720;DHT22;27405;53.316;-6.294;2022-07-18T11:50:18;28.60;46.90
41720;DHT22;27405;53.316;-6.294;2022-07-18T11:52:56;28.70;47.30
41720;DHT22;27405;53.316;-6.294;2022-07-18T11:55:34;28.70;47.10
41720;DHT22;27405;53.316;-6.294;2022-07-18T11:58:26;28.80;47.00
41720;DHT22;27405;53.316;-6.294;2022-07-18T12:00:58;28.80;47.10
41720;DHT22;27405;53.316;-6.294;2022-07-18T12:03:24;28.90;47.10
41720;DHT22;27405;53.316;-6.294;2022-07-18T12:05:52;29.00;46.80
41720;DHT22;27405;53.316;-6.294;2022-07-18T12:08:34;29.10;45.80
41720;DHT22;27405;53.316;-6.294;2022-07-18T12:11:17;29.20;43.40
41720;DHT22;27405;53.316;-6.294;2022-07-18T12:13:50;29.30;42.10
41720;DHT22;27405;53.316;-6.294;2022-07-18T12:16:31;29.30;40.80
41720;DHT22;27405;53.316;-6.294;2022-07-18T12:19:07;29.50;40.80
41720;DHT22;27405;53.316;-6.294;2022-07-18T12:21:56;29.50;40.80
41720;DHT22;27405;53.316;-6.294;2022-07-18T12:27:10;29.80;40.70
41720;DHT22;27405;53.316;-6.294;2022-07-18T12:29:58;29.80;40.80
41720;DHT22;27405;53.316;-6.294;2022-07-18T12:32:56;29.90;40.70
41720;DHT22;27405;53.316;-6.294;2022-07-18T12:35:25;30.10;40.80
41720;DHT22;27405;53.316;-6.294;2022-07-18T12:37:59;30.10;40.10
41720;DHT22;27405;53.316;-6.294;2022-07-18T12:40:37;30.10;39.60
41720;DHT22;27405;53.316;-6.294;2022-07-18T12:43:09;30.20;40.20
41720;DHT22;27405;53.316;-6.294;2022-07-18T12:45:37;30.40;40.50
41720;DHT22;27405;53.316;-6.294;2022-07-18T12:48:03;30.70;40.50
41720;DHT22;27405;53.316;-6.294;2022-07-18T12:50:29;31.00;40.00
41720;DHT22;27405;53.316;-6.294;2022-07-18T12:52:56;31.30;39.60
41720;DHT22;27405;53.316;-6.294;2022-07-18T12:55:22;31.60;39.20
41720;DHT22;27405;53.316;-6.294;2022-07-18T12:57:49;31.70;39.00
41720;DHT22;27405;53.316;-6.294;2022-07-18T13:00:14;31.80;39.00
41720;DHT22;27405;53.316;-6.294;2022-07-18T13:02:42;31.90;38.70
41720;DHT22;27405;53.316;-6.294;2022-07-18T13:05:08;32.10;39.00
41720;DHT22;27405;53.316;-6.294;2022-07-18T13:07:34;32.10;39.00
41720;DHT22;27405;53.316;-6.294;2022-07-18T13:10:00;32.20;39.00
41720;DHT22;27405;53.316;-6.294;2022-07-18T13:12:26;32.30;38.90
41720;DHT22;27405;53.316;-6.294;2022-07-18T13:14:52;32.30;39.00
41720;DHT22;27405;53.316;-6.294;2022-07-18T13:17:17;32.40;38.80
41720;DHT22;27405;53.316;-6.294;2022-07-18T13:19:43;32.40;38.50
41720;DHT22;27405;53.316;-6.294;2022-07-18T13:22:10;32.50;38.40
41720;DHT22;27405;53.316;-6.294;2022-07-18T13:24:36;32.50;38.20
41720;DHT22;27405;53.316;-6.294;2022-07-18T13:27:03;32.50;38.20
41720;DHT22;27405;53.316;-6.294;2022-07-18T13:29:29;32.60;38.10
41720;DHT22;27405;53.316;-6.294;2022-07-18T13:31:55;32.60;38.20
41720;DHT22;27405;53.316;-6.294;2022-07-18T13:34:22;32.60;38.20
41720;DHT22;27405;53.316;-6.294;2022-07-18T13:36:52;32.70;38.20
41720;DHT22;27405;53.316;-6.294;2022-07-18T13:39:19;32.80;38.80
41720;DHT22;27405;53.316;-6.294;2022-07-18T13:41:46;32.90;38.70
41720;DHT22;27405;53.316;-6.294;2022-07-18T13:44:12;33.00;39.10
41720;DHT22;27405;53.316;-6.294;2022-07-18T13:46:38;33.10;39.20
41720;DHT22;27405;53.316;-6.294;2022-07-18T13:49:07;33.10;38.60
41720;DHT22;27405;53.316;-6.294;2022-07-18T13:51:33;33.10;38.50
41720;DHT22;27405;53.316;-6.294;2022-07-18T13:54:00;33.10;38.50
41720;DHT22;27405;53.316;-6.294;2022-07-18T13:56:26;33.00;38.40
41720;DHT22;27405;53.316;-6.294;2022-07-18T13:58:51;33.00;38.70
41720;DHT22;27405;53.316;-6.294;2022-07-18T14:01:17;33.00;38.80
41720;DHT22;27405;53.316;-6.294;2022-07-18T14:03:42;32.90;38.90
41720;DHT22;27405;53.316;-6.294;2022-07-18T14:06:08;32.80;39.30
41720;DHT22;27405;53.316;-6.294;2022-07-18T14:08:34;32.80;39.60
41720;DHT22;27405;53.316;-6.294;2022-07-18T14:10:59;32.80;39.70
41720;DHT22;27405;53.316;-6.294;2022-07-18T14:13:25;32.80;39.70
41720;DHT22;27405;53.316;-6.294;2022-07-18T14:15:51;32.80;39.80
41720;DHT22;27405;53.316;-6.294;2022-07-18T14:18:16;32.90;39.80
41720;DHT22;27405;53.316;-6.294;2022-07-18T14:20:42;33.00;39.90
41720;DHT22;27405;53.316;-6.294;2022-07-18T14:23:08;33.10;39.60
41720;DHT22;27405;53.316;-6.294;2022-07-18T14:25:34;33.10;39.40
41720;DHT22;27405;53.316;-6.294;2022-07-18T14:27:59;33.10;38.50
41720;DHT22;27405;53.316;-6.294;2022-07-18T14:30:26;33.10;39.10
41720;DHT22;27405;53.316;-6.294;2022-07-18T14:32:51;33.10;39.20
41720;DHT22;27405;53.316;-6.294;2022-07-18T14:35:17;33.30;39.00
41720;DHT22;27405;53.316;-6.294;2022-07-18T14:37:43;33.40;38.80
41720;DHT22;27405;53.316;-6.294;2022-07-18T14:40:08;33.50;38.80
41720;DHT22;27405;53.316;-6.294;2022-07-18T14:42:35;33.80;39.20
41720;DHT22;27405;53.316;-6.294;2022-07-18T14:45:01;34.20;39.20
41720;DHT22;27405;53.316;-6.294;2022-07-18T14:47:28;34.50;38.70
41720;DHT22;27405;53.316;-6.294;2022-07-18T14:49:56;34.60;38.20
41720;DHT22;27405;53.316;-6.294;2022-07-18T14:52:22;34.60;38.00
41720;DHT22;27405;53.316;-6.294;2022-07-18T14:54:47;34.50;37.90
41720;DHT22;27405;53.316;-6.294;2022-07-18T14:57:13;34.60;37.90
41720;DHT22;27405;53.316;-6.294;2022-07-18T14:59:41;34.90;38.10
41720;DHT22;27405;53.316;-6.294;2022-07-18T15:02:07;34.90;38.30
41720;DHT22;27405;53.316;-6.294;2022-07-18T15:04:33;34.80;38.00
41720;DHT22;27405;53.316;-6.294;2022-07-18T15:06:59;34.50;38.00
41720;DHT22;27405;53.316;-6.294;2022-07-18T15:09:25;34.20;38.20
41720;DHT22;27405;53.316;-6.294;2022-07-18T15:11:50;34.00;38.40
41720;DHT22;27405;53.316;-6.294;2022-07-18T15:14:16;33.80;38.20
41720;DHT22;27405;53.316;-6.294;2022-07-18T15:16:42;33.60;38.40
41720;DHT22;27405;53.316;-6.294;2022-07-18T15:19:07;33.30;38.60
41720;DHT22;27405;53.316;-6.294;2022-07-18T15:21:33;33.00;39.10
41720;DHT22;27405;53.316;-6.294;2022-07-18T15:23:59;32.70;39.80
41720;DHT22;27405;53.316;-6.294;2022-07-18T15:26:25;32.60;40.40
41720;DHT22;27405;53.316;-6.294;2022-07-18T15:28:51;32.60;41.60
41720;DHT22;27405;53.316;-6.294;2022-07-18T15:31:16;32.70;41.60
41720;DHT22;27405;53.316;-6.294;2022-07-18T15:33:42;32.60;41.20
41720;DHT22;27405;53.316;-6.294;2022-07-18T15:36:08;32.50;41.10
41720;DHT22;27405;53.316;-6.294;2022-07-18T15:38:34;32.50;41.40
41720;DHT22;27405;53.316;-6.294;2022-07-18T15:40:59;32.50;41.10